createdAt,value
2023-03-05T00:01:33.696Z,1.09
2023-03-05T00:04:03.797Z,1.13
2023-03-05T00:06:32.997Z,1.14
2023-03-05T00:09:01.709Z,1.14
2023-03-05T00:11:30.789Z,1.12
2023-03-05T00:14:00.074Z,1.15
2023-03-05T00:16:29.573Z,1.17
2023-03-05T00:19:00.917Z,1.17
2023-03-05T00:21:35.027Z,1.17
2023-03-05T00:24:05.964Z,1.16
2023-03-05T00:26:36.799Z,1.15
2023-03-05T00:29:05.890Z,1.12
2023-03-05T00:31:36.011Z,1.12
2023-03-05T00:34:06.869Z,1.11
2023-03-05T00:36:36.862Z,1.10
2023-03-05T00:39:05.033Z,1.08
2023-03-05T00:41:33.838Z,1.08
2023-03-05T00:44:02.197Z,1.07
2023-03-05T00:46:30.469Z,1.06
2023-03-05T00:48:58.644Z,1.06
2023-03-05T00:51:27.124Z,1.05
2023-03-05T00:53:55.825Z,1.03
2023-03-05T00:56:24.509Z,1.01
2023-03-05T00:58:53.588Z,0.99
2023-03-05T01:01:21.918Z,0.98
2023-03-05T01:03:50.538Z,0.97
2023-03-05T01:06:18.931Z,0.95
2023-03-05T01:08:47.186Z,0.92
2023-03-05T01:11:15.454Z,0.91
2023-03-05T01:13:43.828Z,0.94
2023-03-05T01:16:12.027Z,0.94
2023-03-05T01:18:42.017Z,0.95
2023-03-05T01:21:10.900Z,0.97
2023-03-05T01:23:39.072Z,0.97
2023-03-05T01:26:08.745Z,0.98
2023-03-05T01:28:38.578Z,0.96
2023-03-05T01:31:08.922Z,0.95
2023-03-05T01:33:37.695Z,0.94
2023-03-05T01:36:13.549Z,0.91
2023-03-05T01:38:43.308Z,0.86
2023-03-05T01:41:12.651Z,0.83
2023-03-05T01:43:41.657Z,0.79
2023-03-05T01:46:30.099Z,0.76
2023-03-05T01:49:01.362Z,0.72
2023-03-05T01:51:51.659Z,0.68
2023-03-05T01:54:21.750Z,0.62
2023-03-05T01:56:51.048Z,0.58
2023-03-05T01:59:20.041Z,0.54
2023-03-05T02:01:51.490Z,0.50
2023-03-05T02:04:22.124Z,0.44
2023-03-05T02:06:50.698Z,0.37
2023-03-05T02:09:23.583Z,0.32
2023-03-05T02:11:52.063Z,0.28
2023-03-05T02:14:21.269Z,0.26
2023-03-05T02:16:49.478Z,0.26
2023-03-05T02:19:17.914Z,0.25
2023-03-05T02:21:48.369Z,0.25
2023-03-05T02:24:20.092Z,0.25
2023-03-05T02:26:48.265Z,0.23
2023-03-05T02:29:19.511Z,0.23
2023-03-05T02:31:47.811Z,0.23
2023-03-05T02:34:16.171Z,0.20
2023-03-05T02:36:44.463Z,0.18
2023-03-05T02:39:13.119Z,0.17
2023-03-05T02:41:41.293Z,0.14
2023-03-05T02:44:09.873Z,0.13
2023-03-05T02:46:38.252Z,0.11
2023-03-05T02:49:06.529Z,0.13
2023-03-05T02:51:34.906Z,0.14
2023-03-05T02:54:03.077Z,0.15
2023-03-05T02:56:31.966Z,0.16
2023-03-05T02:59:01.786Z,0.19
2023-03-05T03:01:30.729Z,0.21
2023-03-05T03:03:59.449Z,0.22
2023-03-05T03:06:27.533Z,0.23
2023-03-05T03:08:55.805Z,0.24
2023-03-05T03:11:23.967Z,0.23
2023-03-05T03:13:52.149Z,0.23
2023-03-05T03:16:20.366Z,0.24
2023-03-05T03:18:49.113Z,0.23
2023-03-05T03:21:20.062Z,0.22
2023-03-05T03:23:48.224Z,0.21
2023-03-05T03:26:16.897Z,0.23
2023-03-05T03:28:45.683Z,0.24
2023-03-05T03:31:13.776Z,0.25
2023-03-05T03:33:42.035Z,0.28
2023-03-05T03:36:10.906Z,0.30
2023-03-05T03:38:39.094Z,0.33
2023-03-05T03:41:08.184Z,0.33
2023-03-05T03:43:36.877Z,0.34
2023-03-05T03:46:07.322Z,0.34
2023-03-05T03:48:36.260Z,0.33
2023-03-05T03:51:06.524Z,0.32
2023-03-05T03:53:34.980Z,0.31
2023-03-05T03:56:03.667Z,0.30
2023-03-05T03:58:32.772Z,0.29
2023-03-05T04:01:00.940Z,0.29
2023-03-05T04:03:29.209Z,0.33
2023-03-05T04:05:57.387Z,0.36
2023-03-05T04:08:25.656Z,0.37
2023-03-05T04:10:53.832Z,0.41
2023-03-05T04:13:22.003Z,0.41
2023-03-05T04:15:50.685Z,0.41
2023-03-05T04:18:18.964Z,0.41
2023-03-05T04:20:47.232Z,0.40
2023-03-05T04:23:15.716Z,0.38
2023-03-05T04:25:44.194Z,0.36
2023-03-05T04:28:12.670Z,0.34
2023-03-05T04:30:40.847Z,0.34
2023-03-05T04:33:09.121Z,0.34
2023-03-05T04:35:37.725Z,0.35
2023-03-05T04:38:05.970Z,0.35
2023-03-05T04:40:34.552Z,0.37
2023-03-05T04:43:03.925Z,0.36
2023-03-05T04:45:32.431Z,0.36
2023-03-05T04:48:00.813Z,0.34
2023-03-05T04:50:28.991Z,0.32
2023-03-05T04:52:57.268Z,0.29
2023-03-05T04:55:25.424Z,0.24
2023-03-05T04:57:53.703Z,0.18
2023-03-05T05:00:23.183Z,0.15
2023-03-05T05:02:52.470Z,0.14
2023-03-05T05:05:24.786Z,0.11
2023-03-05T05:07:57.146Z,0.08
2023-03-05T05:10:26.666Z,0.05
2023-03-05T05:12:54.831Z,0.04
2023-03-05T05:15:23.120Z,0.06
2023-03-05T05:17:51.265Z,0.07
2023-03-05T05:20:20.238Z,0.04
2023-03-05T05:22:48.436Z,0.02
2023-03-05T05:25:16.707Z,0.00
2023-03-05T05:27:44.884Z,-0.05
2023-03-05T05:30:13.562Z,-0.09
2023-03-05T05:32:41.796Z,-0.10
2023-03-05T05:35:10.716Z,-0.10
2023-03-05T05:37:38.907Z,-0.09
2023-03-05T05:40:08.520Z,-0.07
2023-03-05T05:42:36.796Z,0.00
2023-03-05T05:45:06.094Z,0.06
2023-03-05T05:47:34.358Z,0.11
2023-03-05T05:50:02.530Z,0.18
2023-03-05T05:52:30.804Z,0.25
2023-03-05T05:54:58.857Z,0.29
2023-03-05T05:57:27.051Z,0.34
2023-03-05T05:59:55.214Z,0.38
2023-03-05T06:02:23.599Z,0.43
2023-03-05T06:04:52.075Z,0.51
2023-03-05T06:07:20.152Z,0.55
2023-03-05T06:09:48.929Z,0.60
2023-03-05T06:12:17.204Z,0.66
2023-03-05T06:14:45.385Z,0.73
2023-03-05T06:17:21.842Z,0.77
2023-03-05T06:19:55.536Z,0.80
2023-03-05T06:22:23.715Z,0.82
2023-03-05T06:24:51.903Z,0.84
2023-03-05T06:27:20.176Z,0.86
2023-03-05T06:29:48.308Z,0.91
2023-03-05T06:32:16.401Z,0.94
2023-03-05T06:34:44.686Z,0.96
2023-03-05T06:37:12.874Z,0.99
2023-03-05T06:39:41.027Z,1.03
2023-03-05T06:42:10.342Z,1.05
2023-03-05T06:44:40.522Z,1.06
2023-03-05T06:47:10.671Z,1.06
2023-03-05T06:49:39.651Z,1.07
2023-03-05T06:52:10.280Z,1.09
2023-03-05T06:54:38.351Z,1.12
2023-03-05T06:57:06.525Z,1.12
2023-03-05T06:59:34.697Z,1.13
2023-03-05T07:02:02.936Z,1.14
2023-03-05T07:04:31.360Z,1.14
2023-03-05T07:07:00.766Z,1.15
2023-03-05T07:09:29.329Z,1.15
2023-03-05T07:11:57.709Z,1.17
2023-03-05T07:14:25.997Z,1.18
2023-03-05T07:16:54.097Z,1.20
2023-03-05T07:19:22.327Z,1.21
2023-03-05T07:21:50.499Z,1.22
2023-03-05T07:24:18.568Z,1.23
2023-03-05T07:26:48.830Z,1.24
2023-03-05T07:29:17.167Z,1.25
2023-03-05T07:31:45.261Z,1.25
2023-03-05T07:34:13.415Z,1.24
2023-03-05T07:36:43.223Z,1.24
2023-03-05T07:39:12.822Z,1.27
2023-03-05T07:41:40.920Z,1.27
2023-03-05T07:44:10.204Z,1.26
2023-03-05T07:46:38.422Z,1.25
2023-03-05T07:49:06.640Z,1.27
2023-03-05T07:51:35.017Z,1.31
2023-03-05T07:54:03.395Z,1.32
2023-03-05T07:56:35.568Z,1.29
2023-03-05T07:59:09.057Z,1.27
2023-03-05T08:01:37.849Z,1.25
2023-03-05T08:04:07.484Z,1.24
2023-03-05T08:06:35.742Z,1.20
2023-03-05T08:09:04.110Z,1.15
2023-03-05T08:11:32.486Z,1.12
2023-03-05T08:14:01.174Z,1.08
2023-03-05T08:16:29.479Z,1.08
2023-03-05T08:18:58.849Z,1.09
2023-03-05T08:21:33.923Z,1.11
2023-03-05T08:24:04.709Z,1.12
2023-03-05T08:26:34.973Z,1.14
2023-03-05T08:29:03.627Z,1.12
2023-03-05T08:31:32.356Z,1.11
2023-03-05T08:34:02.003Z,1.14
2023-03-05T08:36:30.682Z,1.13
2023-03-05T08:38:59.884Z,1.11
2023-03-05T08:41:28.289Z,1.04
2023-03-05T08:43:56.640Z,0.98
2023-03-05T08:46:25.308Z,0.95
2023-03-05T08:48:53.912Z,0.95
2023-03-05T08:51:25.978Z,0.94
2023-03-05T08:53:55.978Z,0.93
2023-03-05T08:56:25.589Z,0.89
2023-03-05T08:58:53.775Z,0.87
2023-03-05T09:01:22.964Z,0.93
2023-03-05T09:03:51.450Z,0.97
2023-03-05T09:06:19.712Z,1.04
2023-03-05T09:08:47.882Z,1.11
2023-03-05T09:11:16.260Z,1.20
2023-03-05T09:13:44.549Z,1.28
2023-03-05T09:16:16.028Z,1.40
2023-03-05T09:18:44.904Z,1.52
2023-03-05T09:21:16.081Z,1.64
2023-03-05T09:23:45.221Z,1.76
2023-03-05T09:26:15.936Z,1.86
2023-03-05T09:28:44.115Z,1.88
2023-03-05T09:31:12.904Z,1.85
2023-03-05T09:33:41.688Z,1.86
2023-03-05T09:36:19.873Z,1.86
2023-03-05T09:38:48.490Z,1.90
2023-03-05T09:41:34.678Z,1.98
2023-03-05T09:44:18.508Z,2.03
2023-03-05T09:46:55.268Z,2.10
2023-03-05T09:49:44.345Z,2.08
2023-03-05T09:52:21.019Z,2.12
2023-03-05T09:54:58.506Z,2.17
2023-03-05T09:57:36.816Z,2.18
2023-03-05T10:00:34.811Z,2.21
2023-03-05T10:03:06.800Z,2.29
2023-03-05T10:05:59.911Z,2.32
2023-03-05T10:08:33.720Z,2.35
2023-03-05T10:11:03.624Z,2.32
2023-03-05T10:13:39.785Z,2.30
2023-03-05T10:16:23.276Z,2.30
2023-03-05T10:19:08.078Z,2.32
2023-03-05T10:22:03.277Z,2.38
2023-03-05T10:24:31.455Z,2.43
2023-03-05T10:27:14.701Z,2.40
2023-03-05T10:29:58.215Z,2.35
2023-03-05T10:33:03.964Z,2.30
2023-03-05T10:35:57.693Z,2.26
2023-03-05T10:39:00.117Z,2.37
2023-03-05T10:41:40.573Z,2.57
2023-03-05T10:44:15.910Z,2.89
2023-03-05T10:46:45.109Z,3.55
2023-03-05T10:49:29.973Z,4.02
2023-03-05T10:52:05.618Z,4.15
2023-03-05T10:54:36.027Z,4.11
2023-03-05T10:57:05.346Z,3.99
2023-03-05T10:59:33.527Z,3.86
2023-03-05T11:02:08.956Z,3.71
2023-03-05T11:04:39.499Z,3.55
2023-03-05T11:07:16.464Z,3.39
2023-03-05T11:10:04.229Z,3.20
2023-03-05T11:12:35.040Z,2.98
2023-03-05T11:15:09.252Z,2.72
2023-03-05T11:17:48.090Z,2.47
2023-03-05T11:20:29.042Z,2.23
2023-03-05T11:23:16.251Z,2.16
2023-03-05T11:26:13.713Z,2.19
2023-03-05T11:28:57.537Z,2.29
2023-03-05T11:31:31.553Z,2.41
2023-03-05T11:34:09.862Z,2.47
2023-03-05T11:36:40.498Z,2.50
2023-03-05T11:39:08.462Z,2.50
2023-03-05T11:41:40.637Z,2.55
2023-03-05T11:44:15.757Z,2.58
2023-03-05T11:46:47.551Z,2.64
2023-03-05T11:49:20.334Z,2.70
2023-03-05T11:52:00.560Z,2.75
2023-03-05T11:54:37.125Z,2.71
2023-03-05T11:57:06.531Z,2.61
2023-03-05T11:59:36.149Z,2.56
2023-03-05T12:02:14.671Z,2.50
2023-03-05T12:04:43.033Z,2.48
2023-03-05T12:07:14.172Z,2.48
2023-03-05T12:09:51.977Z,2.59
2023-03-05T12:13:05.379Z,2.92
2023-03-05T12:16:04.654Z,3.17
2023-03-05T12:18:39.033Z,3.21
2023-03-05T12:21:27.366Z,3.16
2023-03-05T12:24:01.904Z,3.07
2023-03-05T12:27:04.765Z,2.99
2023-03-05T12:29:33.181Z,2.86
2023-03-05T12:32:01.791Z,2.78
2023-03-05T12:34:42.928Z,2.73
2023-03-05T12:37:13.337Z,2.70
2023-03-05T12:39:49.685Z,2.74
2023-03-05T12:42:30.200Z,2.80
2023-03-05T12:45:37.974Z,2.85
2023-03-05T12:48:10.942Z,2.86
2023-03-05T12:50:39.632Z,2.89
2023-03-05T12:53:13.030Z,2.87
2023-03-05T12:55:58.605Z,2.88
2023-03-05T12:59:05.057Z,2.91
2023-03-05T13:01:43.557Z,2.89
2023-03-05T13:04:21.906Z,2.83
2023-03-05T13:07:04.703Z,2.78
2023-03-05T13:09:36.470Z,2.73
2023-03-05T13:12:06.717Z,2.69
2023-03-05T13:14:49.497Z,2.67
2023-03-05T13:17:31.801Z,2.71
2023-03-05T13:20:01.610Z,2.74
2023-03-05T13:22:31.318Z,2.75
2023-03-05T13:25:20.705Z,2.78
2023-03-05T13:27:48.859Z,2.84
2023-03-05T13:30:22.966Z,2.85
2023-03-05T13:32:52.791Z,2.89
2023-03-05T13:35:21.390Z,2.94
2023-03-05T13:37:49.942Z,2.92
2023-03-05T13:40:26.823Z,2.91
2023-03-05T13:42:55.894Z,2.89
2023-03-05T13:45:24.259Z,2.86
2023-03-05T13:48:00.970Z,2.84
2023-03-05T13:50:31.920Z,2.83
2023-03-05T13:53:30.695Z,2.79
2023-03-05T13:56:06.168Z,2.74
2023-03-05T13:58:53.987Z,2.72
2023-03-05T14:01:40.875Z,2.79
2023-03-05T14:04:20.139Z,2.93
2023-03-05T14:06:59.850Z,3.17
2023-03-05T14:09:30.822Z,3.45
2023-03-05T14:12:05.724Z,3.62
2023-03-05T14:14:38.506Z,3.69
2023-03-05T14:17:34.728Z,3.68
2023-03-05T14:20:27.492Z,3.68
2023-03-05T14:22:59.679Z,3.69
2023-03-05T14:25:40.002Z,3.64
2023-03-05T14:28:17.307Z,3.57
2023-03-05T14:30:47.699Z,3.47
2023-03-05T14:33:23.523Z,3.40
2023-03-05T14:35:52.534Z,3.30
2023-03-05T14:38:24.983Z,3.23
2023-03-05T14:40:53.418Z,3.15
2023-03-05T14:43:21.882Z,3.07
2023-03-05T14:45:50.087Z,3.04
2023-03-05T14:48:19.354Z,3.00
2023-03-05T14:50:56.346Z,2.91
2023-03-05T14:53:28.894Z,2.76
2023-03-05T14:55:57.192Z,2.66
2023-03-05T14:58:29.973Z,2.64
2023-03-05T15:00:59.270Z,2.60
2023-03-05T15:03:28.200Z,2.55
2023-03-05T15:05:57.661Z,2.50
2023-03-05T15:08:28.406Z,2.45
2023-03-05T15:10:57.483Z,2.43
2023-03-05T15:13:26.475Z,2.41
2023-03-05T15:15:55.232Z,2.39
2023-03-05T15:18:24.049Z,2.35
2023-03-05T15:20:53.272Z,2.37
2023-03-05T15:23:21.625Z,2.35
2023-03-05T15:25:50.313Z,2.32
2023-03-05T15:28:19.005Z,2.29
2023-03-05T15:30:47.739Z,2.24
2023-03-05T15:33:17.488Z,2.16
2023-03-05T15:35:45.795Z,2.06
2023-03-05T15:38:15.462Z,1.99
2023-03-05T15:40:44.455Z,1.92
2023-03-05T15:43:13.037Z,1.84
2023-03-05T15:45:41.413Z,1.74
2023-03-05T15:48:09.800Z,1.64
2023-03-05T15:50:43.033Z,1.53
2023-03-05T15:53:13.501Z,1.43
2023-03-05T15:55:43.833Z,1.34
2023-03-05T15:58:17.438Z,1.25
2023-03-05T16:00:47.629Z,1.21
2023-03-05T16:03:16.176Z,1.18
2023-03-05T16:05:44.611Z,1.16
2023-03-05T16:08:13.088Z,1.13
2023-03-05T16:10:41.381Z,1.07
2023-03-05T16:13:12.716Z,1.00
2023-03-05T16:15:41.606Z,0.95
2023-03-05T16:18:12.953Z,0.90
2023-03-05T16:20:41.330Z,0.84
2023-03-05T16:23:09.602Z,0.78
2023-03-05T16:25:38.292Z,0.74
2023-03-05T16:28:06.878Z,0.72
2023-03-05T16:30:35.453Z,0.71
2023-03-05T16:33:03.833Z,0.70
2023-03-05T16:35:32.957Z,0.70
2023-03-05T16:38:01.717Z,0.70
2023-03-05T16:40:51.381Z,0.68
2023-03-05T16:43:18.550Z,0.64
2023-03-05T16:45:46.708Z,0.62
2023-03-05T16:48:14.777Z,0.60
2023-03-05T16:50:42.952Z,0.59
2023-03-05T16:53:11.122Z,0.55
2023-03-05T16:55:39.601Z,0.52
2023-03-05T16:58:08.083Z,0.50
2023-03-05T17:00:36.307Z,0.49
2023-03-05T17:03:04.533Z,0.47
2023-03-05T17:05:36.189Z,0.47
2023-03-05T17:08:05.170Z,0.48
2023-03-05T17:10:33.864Z,0.49
2023-03-05T17:13:02.063Z,0.50
2023-03-05T17:15:30.409Z,0.48
2023-03-05T17:17:58.678Z,0.48
2023-03-05T17:20:27.778Z,0.49
2023-03-05T17:22:55.943Z,0.47
2023-03-05T17:25:24.115Z,0.47
2023-03-05T17:27:52.523Z,0.45
2023-03-05T17:30:20.877Z,0.44
2023-03-05T17:32:52.625Z,0.48
2023-03-05T17:35:22.171Z,0.49
2023-03-05T17:37:51.738Z,0.49
2023-03-05T17:40:20.118Z,0.49
2023-03-05T17:42:48.187Z,0.49
2023-03-05T17:45:17.072Z,0.51
2023-03-05T17:47:45.244Z,0.49
2023-03-05T17:50:14.644Z,0.47
2023-03-05T17:52:42.817Z,0.44
2023-03-05T17:55:12.829Z,0.41
2023-03-05T17:57:42.655Z,0.39
2023-03-05T18:00:16.442Z,0.37
2023-03-05T18:02:45.037Z,0.33
2023-03-05T18:05:14.123Z,0.27
2023-03-05T18:07:42.501Z,0.25
2023-03-05T18:10:11.799Z,0.25
2023-03-05T18:12:40.488Z,0.25
2023-03-05T18:15:10.956Z,0.26
2023-03-05T18:17:39.701Z,0.28
2023-03-05T18:20:10.099Z,0.31
2023-03-05T18:22:38.194Z,0.32
2023-03-05T18:25:06.977Z,0.31
2023-03-05T18:27:35.457Z,0.32
2023-03-05T18:30:04.124Z,0.32
2023-03-05T18:32:32.237Z,0.32
2023-03-05T18:35:00.378Z,0.31
2023-03-05T18:37:28.557Z,0.30
2023-03-05T18:39:58.186Z,0.28
2023-03-05T18:42:26.434Z,0.27
2023-03-05T18:44:56.549Z,0.30
2023-03-05T18:47:24.731Z,0.31
2023-03-05T18:49:53.407Z,0.33
2023-03-05T18:52:21.576Z,0.36
2023-03-05T18:54:49.752Z,0.40
2023-03-05T18:57:17.925Z,0.42
2023-03-05T18:59:46.094Z,0.39
2023-03-05T19:02:15.597Z,0.36
2023-03-05T19:04:43.879Z,0.35
2023-03-05T19:07:12.179Z,0.35
2023-03-05T19:10:02.453Z,0.33
2023-03-05T19:12:35.375Z,0.32
2023-03-05T19:15:05.693Z,0.30
2023-03-05T19:17:34.128Z,0.30
2023-03-05T19:20:06.600Z,0.32
2023-03-05T19:22:34.885Z,0.36
2023-03-05T19:25:03.881Z,0.40
2023-03-05T19:27:32.036Z,0.44
2023-03-05T19:30:00.618Z,0.47
2023-03-05T19:32:29.343Z,0.47
2023-03-05T19:34:58.415Z,0.50
2023-03-05T19:37:27.387Z,0.51
2023-03-05T19:39:55.766Z,0.50
2023-03-05T19:42:23.934Z,0.47
2023-03-05T19:44:52.112Z,0.44
2023-03-05T19:47:20.482Z,0.41
2023-03-05T19:49:48.657Z,0.37
2023-03-05T19:52:16.930Z,0.34
2023-03-05T19:54:45.106Z,0.32
2023-03-05T19:57:13.274Z,0.27
2023-03-05T19:59:41.649Z,0.25
2023-03-05T20:02:12.176Z,0.25
2023-03-05T20:04:40.347Z,0.24
2023-03-05T20:07:10.569Z,0.24
2023-03-05T20:09:38.761Z,0.24
2023-03-05T20:12:08.043Z,0.24
2023-03-05T20:14:36.537Z,0.24
2023-03-05T20:17:04.753Z,0.24
2023-03-05T20:19:32.974Z,0.23
2023-03-05T20:22:01.141Z,0.24
2023-03-05T20:24:29.314Z,0.23
2023-03-05T20:26:57.600Z,0.22
2023-03-05T20:29:25.686Z,0.23
2023-03-05T20:31:56.489Z,0.23
2023-03-05T20:34:25.278Z,0.21
2023-03-05T20:36:53.456Z,0.20
2023-03-05T20:39:21.727Z,0.23
2023-03-05T20:41:51.444Z,0.20
2023-03-05T20:44:19.608Z,0.21
2023-03-05T20:47:02.815Z,0.23
2023-03-05T20:49:31.109Z,0.22
2023-03-05T20:51:59.187Z,0.20
2023-03-05T20:54:28.312Z,0.21
2023-03-05T20:56:56.548Z,0.21
2023-03-05T20:59:24.921Z,0.19
2023-03-05T21:01:53.111Z,0.17
2023-03-05T21:04:21.372Z,0.17
2023-03-05T21:06:52.806Z,0.16
2023-03-05T21:09:20.997Z,0.14
2023-03-05T21:11:49.166Z,0.13
2023-03-05T21:14:17.656Z,0.10
2023-03-05T21:16:45.867Z,0.10
2023-03-05T21:19:14.198Z,0.08
2023-03-05T21:21:45.772Z,0.07
2023-03-05T21:24:14.226Z,0.06
2023-03-05T21:26:42.397Z,0.05
2023-03-05T21:29:10.568Z,0.07
2023-03-05T21:31:38.679Z,0.07
2023-03-05T21:34:07.016Z,0.08
2023-03-05T21:36:35.392Z,0.10
2023-03-05T21:39:03.568Z,0.09
2023-03-05T21:41:31.738Z,0.10
2023-03-05T21:44:04.166Z,0.11
2023-03-05T21:46:32.489Z,0.11
2023-03-05T21:49:00.660Z,0.10
2023-03-05T21:51:38.671Z,0.08
2023-03-05T21:54:07.344Z,0.03
2023-03-05T21:56:35.830Z,-0.02
2023-03-05T21:59:04.093Z,-0.07
2023-03-05T22:01:32.333Z,-0.08
2023-03-05T22:04:00.684Z,-0.12
2023-03-05T22:06:28.921Z,-0.13
2023-03-05T22:08:57.092Z,-0.18
2023-03-05T22:11:25.362Z,-0.21
2023-03-05T22:13:53.430Z,-0.24
2023-03-05T22:16:26.227Z,-0.26
2023-03-05T22:18:54.911Z,-0.33
2023-03-05T22:21:26.624Z,-0.37
2023-03-05T22:23:57.368Z,-0.38
2023-03-05T22:26:26.208Z,-0.40
2023-03-05T22:28:54.341Z,-0.42
2023-03-05T22:31:24.047Z,-0.46
2023-03-05T22:33:53.255Z,-0.49
2023-03-05T22:36:21.620Z,-0.52
2023-03-05T22:38:49.806Z,-0.57
2023-03-05T22:41:20.007Z,-0.59
2023-03-05T22:43:49.619Z,-0.60
2023-03-05T22:46:21.035Z,-0.61
2023-03-05T22:48:49.547Z,-0.65
2023-03-05T22:51:18.820Z,-0.69
2023-03-05T22:53:47.427Z,-0.69
2023-03-05T22:56:18.154Z,-0.69
2023-03-05T22:58:46.451Z,-0.71
2023-03-05T23:01:16.534Z,-0.72
2023-03-05T23:03:44.843Z,-0.74
2023-03-05T23:06:13.218Z,-0.75
2023-03-05T23:08:41.395Z,-0.75
2023-03-05T23:11:11.704Z,-0.75
2023-03-05T23:13:40.904Z,-0.77
2023-03-05T23:16:10.005Z,-0.79
2023-03-05T23:18:38.379Z,-0.81
2023-03-05T23:21:06.769Z,-0.81
2023-03-05T23:23:34.928Z,-0.83
2023-03-05T23:26:03.220Z,-0.83
2023-03-05T23:28:31.373Z,-0.83
2023-03-05T23:30:59.565Z,-0.83
2023-03-05T23:33:27.725Z,-0.82
2023-03-05T23:35:58.212Z,-0.79
2023-03-05T23:38:28.565Z,-0.77
2023-03-05T23:41:00.697Z,-0.74
2023-03-05T23:43:30.028Z,-0.73
2023-03-05T23:45:58.466Z,-0.71
2023-03-05T23:48:27.660Z,-0.71
2023-03-05T23:50:56.384Z,-0.72
2023-03-05T23:53:27.737Z,-0.72
2023-03-05T23:55:56.218Z,-0.72
2023-03-05T23:58:24.403Z,-0.72
